Time;durP1;ratioP1;P1;durP2;ratioP2;P2;SDS_P1;SDS_P2;PMS_P1;PMS_P2;Temp;Humidity;BMP_temperature;BMP_pressure;BME280_temperature;BME280_humidity;BME280_pressure;Samples;Min_cycle;Max_cycle;Signal;HPM_P1;HPM_P2
2021/10/15 00:02:12;;;;;;;;;12.50;12.00;;;;;20.70;41.97;101645.31;5013925;28;51025;-54
2021/10/15 00:04:38;;;;;;;;;11.75;11.75;;;;;20.71;42.35;101652.53;5004221;28;51088;-53
2021/10/15 00:07:03;;;;;;;;;13.00;11.00;;;;;20.70;41.89;101643.41;5001623;28;51111;-53
2021/10/15 00:09:29;;;;;;;;;13.75;12.75;;;;;20.70;42.00;101646.16;5008044;28;51330;-54
2021/10/15 00:11:54;;;;;;;;;14.25;10.25;;;;;20.70;42.41;101643.41;5010019;28;51775;-54
2021/10/15 00:14:19;;;;;;;;;10.75;10.25;;;;;20.70;41.91;101646.16;4996037;28;51058;-54
2021/10/15 00:16:45;;;;;;;;;10.00;10.00;;;;;20.71;41.83;101641.50;4996038;28;51201;-54
2021/10/15 00:19:10;;;;;;;;;14.00;12.25;;;;;20.70;42.01;101648.06;4997486;28;51291;-55
2021/10/15 00:21:36;;;;;;;;;11.25;11.25;;;;;20.71;41.92;101652.53;5006048;28;51114;-55
2021/10/15 00:24:01;;;;;;;;;15.75;12.50;;;;;20.70;42.38;101648.94;5003906;28;51091;-55
2021/10/15 00:26:26;;;;;;;;;12.50;11.75;;;;;20.70;41.84;101654.44;5006140;28;51091;-55
2021/10/15 00:28:51;;;;;;;;;9.50;9.50;;;;;20.69;41.88;101651.88;5011576;28;51444;-55
2021/10/15 00:31:17;;;;;;;;;13.25;10.25;;;;;20.69;42.12;101646.38;5007133;28;52438;-55
2021/10/15 00:33:42;;;;;;;;;10.75;10.75;;;;;20.69;42.13;101647.22;5014459;28;50904;-55
2021/10/15 00:36:08;;;;;;;;;12.50;8.75;;;;;20.68;42.36;101642.78;5013139;28;51712;-55
2021/10/15 00:38:33;;;;;;;;;14.75;12.25;;;;;20.68;42.07;101639.19;4999174;28;51029;-55
2021/10/15 00:40:59;;;;;;;;;11.00;10.00;;;;;20.67;41.95;101645.75;4986827;28;51159;-55
2021/10/15 00:43:25;;;;;;;;;10.25;8.25;;;;;20.68;42.31;101647.44;5004222;28;51121;-53
2021/10/15 00:45:51;;;;;;;;;10.00;9.50;;;;;20.67;41.99;101640.22;5015006;28;51183;-54
2021/10/15 00:48:16;;;;;;;;;10.50;10.50;;;;;20.66;42.22;101636.63;4995251;28;51387;-53
2021/10/15 00:50:43;;;;;;;;;8.75;6.75;;;;;20.66;42.11;101633.88;4998198;28;51728;-52
2021/10/15 00:53:09;;;;;;;;;12.25;8.50;;;;;20.67;42.26;101634.72;5009440;28;51441;-52
2021/10/15 00:55:34;;;;;;;;;11.50;8.50;;;;;20.66;42.18;101638.53;4995642;28;51495;-51
2021/10/15 00:58:01;;;;;;;;;10.25;10.25;;;;;20.66;41.99;101631.13;4996962;28;51155;-52
2021/10/15 01:00:26;;;;;;;;;8.75;8.75;;;;;20.65;42.04;101632.19;4995446;28;51031;-55
2021/10/15 01:02:52;;;;;;;;;10.00;10.00;;;;;20.67;42.21;101631.97;5010372;28;51059;-53
2021/10/15 01:05:17;;;;;;;;;11.00;11.00;;;;;20.65;41.83;101632.19;5004141;28;52340;-53
2021/10/15 01:07:43;;;;;;;;;12.00;10.50;;;;;20.64;41.97;101626.88;5005940;28;51051;-53
2021/10/15 01:10:08;;;;;;;;;10.50;10.50;;;;;20.65;42.40;101625.84;4999654;28;51078;-55
2021/10/15 01:12:35;;;;;;;;;8.25;8.25;;;;;20.65;42.27;101618.41;4995877;28;51083;-52
2021/10/15 01:15:00;;;;;;;;;12.25;9.00;;;;;20.64;41.97;101622.22;4995748;28;51223;-55
2021/10/15 01:17:26;;;;;;;;;10.25;8.00;;;;;20.64;42.34;101618.63;4997403;28;51574;-54
2021/10/15 01:19:54;;;;;;;;;9.00;7.75;;;;;20.63;42.06;101620.50;4999587;28;52338;-53
2021/10/15 01:22:20;;;;;;;;;12.00;9.50;;;;;20.63;42.21;101623.25;4996440;28;51263;-55
2021/10/15 01:24:45;;;;;;;;;9.00;7.25;;;;;20.63;42.26;101619.66;5014658;28;51214;-56
2021/10/15 01:27:11;;;;;;;;;11.00;10.75;;;;;20.63;42.52;101616.91;5004825;28;51077;-57
2021/10/15 01:29:38;;;;;;;;;9.75;9.00;;;;;20.62;42.18;101613.31;4999004;28;51058;-56
2021/10/15 01:32:05;;;;;;;;;8.50;8.50;;;;;20.63;42.45;101600.38;4995552;28;51337;-56
2021/10/15 01:34:31;;;;;;;;;8.50;8.50;;;;;20.61;42.06;101595.09;5003539;28;51134;-57
2021/10/15 01:36:56;;;;;;;;;8.75;7.25;;;;;20.61;42.31;101597.84;5003059;28;51127;-53
2021/10/15 01:39:22;;;;;;;;;9.00;6.50;;;;;20.61;42.13;101600.59;5013960;28;51730;-54
2021/10/15 01:41:47;;;;;;;;;9.75;8.00;;;;;20.61;42.50;101595.09;5008984;28;51131;-56
2021/10/15 01:44:12;;;;;;;;;11.75;10.00;;;;;20.62;42.38;101601.44;5006392;28;51360;-57
2021/10/15 01:46:38;;;;;;;;;11.25;8.00;;;;;20.61;42.33;101600.59;4992294;28;51072;-57
2021/10/15 01:49:03;;;;;;;;;10.00;9.25;;;;;20.61;42.38;101595.09;5010664;28;51985;-57
2021/10/15 01:51:29;;;;;;;;;11.25;9.25;;;;;20.61;42.10;101600.59;4999860;28;51221;-57
2021/10/15 01:53:54;;;;;;;;;9.25;8.25;;;;;20.60;42.35;101598.91;5011093;28;51075;-58
2021/10/15 01:56:20;;;;;;;;;8.75;8.75;;;;;20.60;42.16;101587.03;5012901;28;50988;-57
2021/10/15 01:58:46;;;;;;;;;10.50;7.75;;;;;20.59;42.20;101583.44;5005666;28;51046;-57
2021/10/15 02:01:11;;;;;;;;;8.75;8.75;;;;;20.59;42.39;101583.44;5006663;28;51090;-53
2021/10/15 02:03:37;;;;;;;;;10.00;7.75;;;;;20.59;42.21;101583.44;5012921;28;51489;-54
2021/10/15 02:06:02;;;;;;;;;8.75;8.00;;;;;20.58;42.38;101581.75;5013227;28;51259;-54
2021/10/15 02:08:27;;;;;;;;;7.25;7.25;;;;;20.59;42.23;101582.59;5013762;28;51041;-54
2021/10/15 02:10:53;;;;;;;;;7.00;7.00;;;;;20.59;42.44;101580.69;5013888;28;51027;-54
2021/10/15 02:13:18;;;;;;;;;8.00;5.00;;;;;20.58;42.48;101579.00;5013857;28;51102;-54
2021/10/15 02:15:43;;;;;;;;;7.75;7.75;;;;;20.58;42.38;101578.16;5012625;28;51246;-55
2021/10/15 02:18:09;;;;;;;;;9.25;7.25;;;;;20.58;42.20;101575.41;5005717;28;51083;-56
2021/10/15 02:20:34;;;;;;;;;8.75;8.25;;;;;20.58;42.24;101580.91;5010393;28;51006;-55
2021/10/15 02:23:00;;;;;;;;;9.00;8.25;;;;;20.58;42.20;101578.16;5002529;28;51112;-56
2021/10/15 02:25:25;;;;;;;;;7.25;7.00;;;;;20.58;42.36;101572.63;5003721;28;51168;-55
2021/10/15 02:27:51;;;;;;;;;7.75;7.75;;;;;20.57;42.26;101571.78;5001854;28;51894;-56
2021/10/15 02:30:17;;;;;;;;;9.25;8.00;;;;;20.58;41.93;101569.88;5006538;28;51117;-56
2021/10/15 02:32:44;;;;;;;;;7.75;7.25;;;;;20.58;42.70;101561.63;5008213;28;51112;-56
2021/10/15 02:35:10;;;;;;;;;7.25;7.25;;;;;20.57;42.45;101563.53;5006359;28;51321;-56
2021/10/15 02:37:37;;;;;;;;;8.00;6.50;;;;;20.57;42.62;101558.03;5016194;28;52059;-55
2021/10/15 02:40:03;;;;;;;;;7.00;7.00;;;;;20.57;42.28;101558.03;5017080;28;51007;-55
2021/10/15 02:42:29;;;;;;;;;8.25;7.00;;;;;20.57;42.32;101548.94;5016610;28;51206;-53
2021/10/15 02:44:54;;;;;;;;;6.00;6.00;;;;;20.57;42.70;101543.41;5006503;28;51038;-53
2021/10/15 02:47:19;;;;;;;;;8.50;8.50;;;;;20.56;42.40;101539.81;5005937;28;51782;-53
2021/10/15 02:49:45;;;;;;;;;6.50;6.50;;;;;20.57;42.45;101538.75;4990870;28;51196;-53
2021/10/15 02:52:10;;;;;;;;;6.75;6.75;;;;;20.57;42.48;101548.94;5014619;28;51144;-56
2021/10/15 02:54:36;;;;;;;;;6.00;6.00;;;;;20.56;42.36;101553.59;4998246;28;51074;-56
2021/10/15 02:57:01;;;;;;;;;9.75;6.50;;;;;20.56;42.56;101555.50;5000314;28;51201;-56
2021/10/15 02:59:26;;;;;;;;;6.50;6.25;;;;;20.56;42.46;101552.72;5016855;28;51051;-55
2021/10/15 03:01:52;;;;;;;;;8.25;6.25;;;;;20.55;42.38;101548.28;5007971;28;51246;-56
2021/10/15 03:04:17;;;;;;;;;7.75;7.00;;;;;20.53;42.57;101556.75;5017107;28;51087;-56
2021/10/15 03:06:42;;;;;;;;;6.25;5.50;;;;;20.54;42.35;101547.44;5016839;28;51144;-54
2021/10/15 03:09:08;;;;;;;;;9.25;9.00;;;;;20.53;42.11;101545.75;5016164;28;52895;-54
2021/10/15 03:11:33;;;;;;;;;8.75;7.00;;;;;20.54;42.31;101538.34;5014978;28;51139;-52
2021/10/15 03:13:59;;;;;;;;;7.25;6.00;;;;;20.52;42.42;101541.28;5016900;28;51419;-53
2021/10/15 03:16:24;;;;;;;;;11.00;7.50;;;;;20.53;42.41;101539.38;5013750;28;51779;-55
2021/10/15 03:18:49;;;;;;;;;7.50;7.50;;;;;20.53;42.28;101544.88;5000449;28;51065;-55
2021/10/15 03:21:15;;;;;;;;;7.00;7.00;;;;;20.52;42.69;101540.41;4999305;28;51147;-54
2021/10/15 03:23:40;;;;;;;;;7.25;7.25;;;;;20.52;42.40;101534.91;5010566;28;51786;-53
2021/10/15 03:26:05;;;;;;;;;9.25;7.50;;;;;20.52;42.76;101534.91;5013641;28;52633;-51
2021/10/15 03:28:31;;;;;;;;;8.25;8.25;;;;;20.51;42.52;101538.72;5016247;28;51127;-55
2021/10/15 03:30:56;;;;;;;;;6.25;6.25;;;;;20.52;42.81;101545.94;5003223;28;51288;-55
2021/10/15 03:33:22;;;;;;;;;9.00;8.00;;;;;20.51;42.40;101539.56;4997519;28;51150;-54
2021/10/15 03:35:47;;;;;;;;;9.00;8.00;;;;;20.51;42.71;101536.81;4996904;28;50950;-52
2021/10/15 03:38:12;;;;;;;;;7.75;7.00;;;;;20.50;42.37;101532.38;4997514;28;51100;-55
2021/10/15 03:40:38;;;;;;;;;7.75;7.00;;;;;20.49;42.52;101530.69;4998028;28;51130;-55
2021/10/15 03:43:03;;;;;;;;;7.50;7.50;;;;;20.50;42.51;101534.28;4997805;28;51158;-51
2021/10/15 03:45:29;;;;;;;;;7.00;7.00;;;;;20.51;42.43;101533.22;5006657;28;51922;-56
2021/10/15 03:47:54;;;;;;;;;9.25;7.25;;;;;20.50;42.48;101546.13;4984036;28;51119;-56
2021/10/15 03:50:19;;;;;;;;;9.25;9.00;;;;;20.49;42.76;101536.19;5010146;28;51207;-55
2021/10/15 03:52:45;;;;;;;;;6.00;6.00;;;;;20.49;42.46;101530.69;5002781;28;51096;-55
2021/10/15 03:55:11;;;;;;;;;8.75;7.00;;;;;20.49;42.61;101535.34;5003838;28;51733;-53
2021/10/15 03:57:37;;;;;;;;;10.75;8.25;;;;;20.49;42.73;101538.09;5001798;28;51393;-55
2021/10/15 04:00:08;;;;;;;;;8.00;7.00;;;;;20.49;42.36;101535.34;5006670;28;51428;-54
2021/10/15 04:02:42;;;;;;;;;10.50;8.50;;;;;20.49;42.27;101546.34;4996931;28;51349;-55
2021/10/15 04:05:09;;;;;;;;;7.25;7.00;;;;;20.47;42.35;101527.28;4996690;28;51006;-55
2021/10/15 04:07:35;;;;;;;;;7.00;7.00;;;;;20.47;42.69;101521.78;5004584;28;51162;-55
2021/10/15 04:10:01;;;;;;;;;7.00;7.00;;;;;20.47;42.62;101527.28;4998661;28;51304;-55
2021/10/15 04:12:26;;;;;;;;;9.00;8.00;;;;;20.46;42.70;101518.19;4996633;28;51052;-54
2021/10/15 04:14:51;;;;;;;;;8.25;8.25;;;;;20.47;42.86;101521.78;4996353;28;51069;-55
2021/10/15 04:17:17;;;;;;;;;10.75;8.25;;;;;20.46;43.07;101525.59;5005624;28;51320;-55
2021/10/15 04:19:42;;;;;;;;;9.00;7.00;;;;;20.47;42.82;101524.53;5008458;28;51161;-54
2021/10/15 04:22:10;;;;;;;;;6.75;6.50;;;;;20.46;42.88;101526.44;4981441;28;51242;-56
2021/10/15 04:24:39;;;;;;;;;10.00;7.75;;;;;20.46;42.64;101518.19;5015046;28;51570;-56
2021/10/15 04:27:05;;;;;;;;;11.50;10.00;;;;;20.45;42.52;101522.00;5004928;28;51214;-57
2021/10/15 04:29:31;;;;;;;;;8.00;7.00;;;;;20.45;42.97;101524.75;4997242;28;51151;-55
2021/10/15 04:31:56;;;;;;;;;8.00;8.00;;;;;20.45;42.49;101518.41;5013673;28;51722;-55
2021/10/15 04:34:22;;;;;;;;;9.25;8.25;;;;;20.45;42.56;101508.25;5005279;28;51093;-54
2021/10/15 04:36:47;;;;;;;;;12.75;9.00;;;;;20.45;42.70;101508.25;5002980;28;51215;-55
2021/10/15 04:39:13;;;;;;;;;12.50;10.00;;;;;20.45;42.41;101512.91;4997879;28;51142;-54
2021/10/15 04:41:38;;;;;;;;;10.50;8.75;;;;;20.46;42.81;101509.09;4996049;28;51479;-53
2021/10/15 04:44:04;;;;;;;;;11.75;8.00;;;;;20.45;42.80;101502.72;5010493;28;51096;-52
2021/10/15 04:46:29;;;;;;;;;10.50;9.00;;;;;20.46;42.67;101500.81;5008144;28;51117;-54
2021/10/15 04:48:55;;;;;;;;;13.00;9.75;;;;;20.47;43.19;101497.03;4997983;28;51152;-53
2021/10/15 04:51:20;;;;;;;;;10.75;9.50;;;;;20.47;42.88;101491.50;5004648;28;51118;-53
2021/10/15 04:53:45;;;;;;;;;10.50;8.50;;;;;20.46;43.26;101492.56;5002533;28;50952;-54
2021/10/15 04:56:11;;;;;;;;;11.50;10.25;;;;;20.45;42.76;101488.13;5004854;28;51062;-54
2021/10/15 04:58:36;;;;;;;;;11.00;10.00;;;;;20.46;43.20;101484.31;5011036;28;51114;-54
2021/10/15 05:01:01;;;;;;;;;12.00;9.50;;;;;20.44;42.59;101486.44;5005710;28;51103;-53
2021/10/15 05:03:27;;;;;;;;;12.25;9.75;;;;;20.45;42.68;101488.97;4996317;28;51992;-55
2021/10/15 05:05:52;;;;;;;;;13.00;11.75;;;;;20.45;43.02;101497.22;4996863;28;51001;-53
2021/10/15 05:08:18;;;;;;;;;13.00;13.00;;;;;20.45;42.87;101496.38;4995616;28;51127;-52
2021/10/15 05:10:44;;;;;;;;;12.75;10.00;;;;;20.45;43.26;101494.47;4995608;28;51185;-55
2021/10/15 05:13:12;;;;;;;;;10.25;9.25;;;;;20.47;43.06;101497.03;5002410;28;50951;-53
2021/10/15 05:15:39;;;;;;;;;12.50;11.75;;;;;20.47;43.13;101488.75;5010225;28;51165;-51
2021/10/15 05:18:04;;;;;;;;;11.50;9.50;;;;;20.49;43.00;101496.81;5006546;28;51221;-52
2021/10/15 05:20:29;;;;;;;;;14.50;12.75;;;;;20.48;43.22;101501.47;4996238;28;51104;-53
2021/10/15 05:22:55;;;;;;;;;12.00;10.25;;;;;20.49;43.07;101494.06;4995210;28;51801;-51
2021/10/15 05:25:20;;;;;;;;;14.25;12.00;;;;;20.46;43.15;101490.66;5000169;28;51118;-51
2021/10/15 05:27:46;;;;;;;;;12.50;11.50;;;;;20.46;43.07;101495.31;5002735;28;51226;-57
2021/10/15 05:30:12;;;;;;;;;17.00;14.75;;;;;20.46;43.23;101487.06;5010927;28;51165;-55
2021/10/15 05:32:38;;;;;;;;;12.25;11.25;;;;;20.46;42.84;101487.91;4996281;28;51117;-57
2021/10/15 05:35:05;;;;;;;;;14.75;14.25;;;;;20.45;43.09;101490.88;4986735;28;51079;-54
2021/10/15 05:37:31;;;;;;;;;16.50;14.50;;;;;20.46;42.91;101489.81;5003201;28;51141;-54
2021/10/15 05:39:56;;;;;;;;;15.50;14.25;;;;;20.45;43.23;101493.63;4997887;28;51235;-55
2021/10/15 05:42:21;;;;;;;;;17.00;14.50;;;;;20.45;42.94;101490.88;5011268;28;51124;-53
2021/10/15 05:44:47;;;;;;;;;16.50;15.75;;;;;20.46;43.11;101489.81;5000633;28;51030;-55
2021/10/15 05:47:13;;;;;;;;;14.75;13.50;;;;;20.46;43.17;101485.16;4997965;28;51241;-55
2021/10/15 05:49:40;;;;;;;;;16.00;13.75;;;;;20.47;43.34;101486.00;4994949;28;51148;-54
2021/10/15 05:52:12;;;;;;;;;17.00;13.50;;;;;20.49;43.25;101492.16;5004686;28;51841;-58
2021/10/15 05:54:56;;;;;;;;;16.75;14.00;;;;;20.49;43.19;101488.56;5005022;28;51171;-58
2021/10/15 05:59:59;;;;;;;;;19.25;14.50;;;;;20.48;42.94;101487.69;4998855;28;51225;-58
2021/10/15 06:02:31;;;;;;;;;18.75;16.25;;;;;20.46;43.31;101479.66;5015745;28;51140;-58
2021/10/15 06:15:33;;;;;;;;;17.25;14.50;;;;;20.45;42.91;101501.88;5016601;28;51112;-55
2021/10/15 06:17:58;;;;;;;;;15.25;15.00;;;;;20.46;43.24;101503.59;5009436;28;51227;-53
2021/10/15 06:20:24;;;;;;;;;17.75;13.25;;;;;20.46;43.13;101503.59;5015711;28;51132;-59
2021/10/15 06:22:50;;;;;;;;;17.50;15.00;;;;;20.45;43.29;101508.25;5011721;28;51035;-57
2021/10/15 06:25:16;;;;;;;;;15.50;14.50;;;;;20.47;42.98;101508.03;4998242;28;51035;-56
2021/10/15 06:27:41;;;;;;;;;21.50;17.00;;;;;20.48;43.53;101517.97;4998479;28;51063;-58
2021/10/15 06:30:07;;;;;;;;;17.00;12.50;;;;;20.49;43.17;101511.41;4997807;28;51376;-57
2021/10/15 06:32:32;;;;;;;;;16.25;16.00;;;;;20.50;43.01;101512.25;4996893;28;51235;-58
2021/10/15 06:34:58;;;;;;;;;12.50;11.50;;;;;20.49;43.31;101514.16;4980297;28;51084;-58
2021/10/15 06:37:24;;;;;;;;;16.00;12.75;;;;;20.48;43.09;101512.47;4997880;28;51099;-58
2021/10/15 06:39:53;;;;;;;;;18.25;14.00;;;;;20.49;43.12;101514.16;4998005;28;51202;-56
2021/10/15 06:42:18;;;;;;;;;15.50;13.75;;;;;20.48;43.43;101506.97;4997666;28;51124;-58
2021/10/15 06:44:44;;;;;;;;;13.75;12.25;;;;;20.48;43.07;101515.22;4997533;28;50964;-58
2021/10/15 06:47:10;;;;;;;;;17.00;12.00;;;;;20.49;43.31;101507.81;4998134;28;51002;-56
2021/10/15 06:49:35;;;;;;;;;17.50;14.75;;;;;20.48;43.23;101509.72;4980115;28;51052;-57
2021/10/15 06:52:01;;;;;;;;;15.75;13.75;;;;;20.47;43.19;101508.03;4997637;28;51158;-58
2021/10/15 06:54:26;;;;;;;;;19.50;14.50;;;;;20.49;42.96;101511.41;4997255;28;51320;-57
2021/10/15 06:56:51;;;;;;;;;16.00;14.75;;;;;20.48;42.95;101515.22;4997407;28;51000;-58
2021/10/15 06:59:17;;;;;;;;;14.75;12.50;;;;;20.49;43.18;101505.91;4997547;28;51266;-59
2021/10/15 07:01:42;;;;;;;;;15.25;13.25;;;;;20.50;42.96;101507.59;4997197;28;51817;-58
2021/10/15 07:04:07;;;;;;;;;15.00;13.75;;;;;20.50;42.96;101504.00;4997521;28;51106;-58
2021/10/15 07:06:34;;;;;;;;;15.00;12.50;;;;;20.50;43.10;101504.84;4997122;28;51341;-58
2021/10/15 07:09:00;;;;;;;;;17.00;13.50;;;;;20.50;42.77;101524.13;4997284;28;51259;-58
2021/10/15 07:11:25;;;;;;;;;32.25;29.25;;;;;20.48;42.13;101520.72;4996588;28;51779;-55
2021/10/15 07:13:51;;;;;;;;;34.25;29.50;;;;;20.42;41.79;101521.50;5010508;28;50951;-55
2021/10/15 07:16:16;;;;;;;;;66.00;51.50;;;;;20.31;41.46;101528.44;5015226;28;51165;-55
2021/10/15 07:18:42;;;;;;;;;55.25;44.25;;;;;20.19;41.84;101530.94;5007371;28;50958;-53
2021/10/15 07:21:09;;;;;;;;;41.00;33.00;;;;;20.10;41.87;101540.41;5009993;28;51160;-54
2021/10/15 07:23:34;;;;;;;;;45.50;36.00;;;;;20.00;41.66;101539.91;5010913;28;51913;-52
2021/10/15 07:26:01;;;;;;;;;38.75;32.00;;;;;19.92;41.63;101545.59;5013597;28;51015;-55
2021/10/15 07:28:27;;;;;;;;;38.50;34.50;;;;;19.86;41.97;101540.91;4994329;28;51257;-59
2021/10/15 07:30:54;;;;;;;;;34.00;31.50;;;;;19.81;42.01;101538.78;5006124;28;51823;-58
2021/10/15 07:33:19;;;;;;;;;34.25;30.50;;;;;19.80;42.15;101541.69;4997241;28;51535;-58
2021/10/15 07:35:45;;;;;;;;;38.75;33.25;;;;;19.81;42.48;101549.75;5001789;28;51278;-56
2021/10/15 07:38:10;;;;;;;;;43.00;35.00;;;;;19.84;42.05;101556.75;5001970;28;51150;-58
2021/10/15 07:40:36;;;;;;;;;33.00;31.75;;;;;19.86;42.28;101547.25;4997134;28;51786;-57
2021/10/15 07:43:01;;;;;;;;;36.50;32.25;;;;;19.88;42.28;101547.03;4995969;28;51003;-57
2021/10/15 07:45:28;;;;;;;;;40.25;30.75;;;;;19.90;42.29;101547.69;4996840;28;51044;-59
2021/10/15 07:47:53;;;;;;;;;38.25;31.25;;;;;19.93;42.09;101546.44;4996286;28;51048;-58
2021/10/15 07:50:19;;;;;;;;;39.75;33.50;;;;;19.95;42.24;101555.34;5005418;28;51778;-61
2021/10/15 07:52:44;;;;;;;;;33.25;31.75;;;;;19.96;42.46;101557.03;5008021;28;51192;-56
2021/10/15 07:55:10;;;;;;;;;33.75;28.75;;;;;19.98;42.28;101554.94;5014961;28;51471;-57
2021/10/15 07:57:36;;;;;;;;;37.50;32.00;;;;;19.99;42.58;101551.97;5002214;28;51119;-55
2021/10/15 08:00:08;;;;;;;;;28.50;27.50;;;;;20.00;42.40;101547.31;4997843;28;51985;-55
2021/10/15 08:02:33;;;;;;;;;34.75;28.25;;;;;20.02;42.32;101562.59;5005473;28;51419;-56
2021/10/15 08:04:58;;;;;;;;;36.00;30.50;;;;;20.04;42.59;101554.13;4994445;28;50929;-55
2021/10/15 08:07:24;;;;;;;;;37.00;32.00;;;;;20.05;42.49;101556.69;5008599;28;51460;-55
2021/10/15 08:09:49;;;;;;;;;31.75;27.00;;;;;20.06;42.40;101555.63;4999193;28;52008;-55
2021/10/15 08:12:15;;;;;;;;;36.75;30.75;;;;;20.07;42.47;101568.31;5005527;28;51312;-56
2021/10/15 08:14:40;;;;;;;;;31.50;26.25;;;;;20.09;42.32;101560.72;5007121;28;51032;-56
2021/10/15 08:17:06;;;;;;;;;31.75;28.50;;;;;20.11;42.36;101566.88;5000166;28;51129;-55
2021/10/15 08:19:31;;;;;;;;;35.00;31.00;;;;;20.13;42.03;101562.03;4994116;28;51112;-56
2021/10/15 08:21:56;;;;;;;;;32.00;29.25;;;;;20.14;42.57;101554.63;4998205;28;51250;-56
2021/10/15 08:24:24;;;;;;;;;35.25;31.25;;;;;20.17;42.41;101556.97;5004973;28;51246;-61
2021/10/15 08:26:50;;;;;;;;;29.25;28.25;;;;;20.18;42.17;101561.41;5004967;28;51284;-54
2021/10/15 08:29:16;;;;;;;;;36.50;32.50;;;;;20.19;42.03;101557.59;5012642;28;52078;-55
2021/10/15 08:31:41;;;;;;;;;33.50;28.00;;;;;20.21;42.31;101560.13;4999075;28;51125;-56
2021/10/15 08:34:10;;;;;;;;;37.50;32.50;;;;;20.21;42.31;101552.72;5009946;28;51842;-57
2021/10/15 08:36:38;;;;;;;;;27.50;25.00;;;;;20.22;42.46;101556.34;5013076;28;51060;-56
2021/10/15 08:39:04;;;;;;;;;32.00;30.25;;;;;20.23;42.09;101560.81;5013937;28;51904;-55
2021/10/15 08:41:30;;;;;;;;;30.00;28.75;;;;;20.22;42.16;101561.84;5012397;28;51337;-55
2021/10/15 08:43:57;;;;;;;;;27.75;26.75;;;;;20.22;42.67;101559.97;5008101;28;51091;-57
2021/10/15 08:46:23;;;;;;;;;31.00;28.25;;;;;20.23;42.22;101566.31;4996304;28;51185;-57
2021/10/15 08:48:49;;;;;;;;;27.50;25.00;;;;;20.25;42.11;101567.81;5011977;28;51631;-56
2021/10/15 08:51:15;;;;;;;;;33.50;29.00;;;;;20.26;42.09;101571.41;5011592;28;51487;-57
2021/10/15 08:53:48;;;;;;;;;32.50;27.50;;;;;20.27;41.95;101573.09;5006647;28;51125;-56
2021/10/15 08:56:17;;;;;;;;;33.50;29.75;;;;;20.28;42.22;101566.53;5002727;28;51162;-57
2021/10/15 08:58:44;;;;;;;;;31.25;26.50;;;;;20.30;42.12;101564.41;5013522;28;51832;-56
2021/10/15 09:01:10;;;;;;;;;31.50;28.00;;;;;20.31;42.24;101569.72;5008716;28;51470;-57
2021/10/15 09:03:35;;;;;;;;;28.50;25.50;;;;;20.31;41.87;101571.63;5013718;28;51226;-56
2021/10/15 09:06:05;;;;;;;;;29.00;27.25;;;;;20.33;42.28;101567.63;5004781;28;50946;-56
2021/10/15 09:08:49;;;;;;;;;32.25;29.00;;;;;20.34;41.92;101571.25;4994270;28;51826;-57
2021/10/15 09:11:42;;;;;;;;;36.50;30.25;;;;;20.36;41.95;101569.97;5003236;28;51216;-57
2021/10/15 09:14:26;;;;;;;;;28.75;25.75;;;;;20.38;42.02;101575.25;5007234;28;51150;-56
2021/10/15 09:16:51;;;;;;;;;31.25;28.50;;;;;20.39;42.21;101574.22;5010738;28;51364;-57
2021/10/15 09:19:40;;;;;;;;;32.00;27.75;;;;;20.43;42.15;101578.31;5013096;28;52766;-57
2021/10/15 09:22:20;;;;;;;;;29.25;28.00;;;;;20.44;41.78;101578.09;4995107;28;51534;-56
2021/10/15 09:24:51;;;;;;;;;29.75;26.00;;;;;20.46;41.83;101578.72;5004628;28;51193;-55
2021/10/15 09:27:22;;;;;;;;;24.25;23.25;;;;;20.50;41.70;101586.56;4999297;28;51035;-56
2021/10/15 09:29:50;;;;;;;;;29.25;27.25;;;;;20.51;42.06;101583.63;5002181;28;51090;-57
2021/10/15 09:32:16;;;;;;;;;24.50;21.75;;;;;20.54;41.47;101593.38;5006744;28;51475;-57
2021/10/15 09:34:43;;;;;;;;;30.50;27.25;;;;;20.57;41.62;101601.22;5007113;28;51097;-55
2021/10/15 09:37:14;;;;;;;;;31.00;27.50;;;;;20.59;41.59;101599.09;5011240;28;51059;-56
2021/10/15 09:39:40;;;;;;;;;33.00;27.25;;;;;20.61;41.32;101594.25;4997176;28;52334;-56
2021/10/15 09:42:16;;;;;;;;;28.50;25.25;;;;;20.65;41.60;101599.16;5016803;28;51020;-57
2021/10/15 09:44:42;;;;;;;;;26.25;23.75;;;;;20.68;41.76;101601.47;5009646;28;51151;-56
2021/10/15 09:47:15;;;;;;;;;27.00;21.25;;;;;20.71;41.58;101597.47;5011944;28;51132;-56
2021/10/15 09:50:10;;;;;;;;;27.75;26.00;;;;;20.74;41.58;101605.34;4999411;28;51005;-55
2021/10/15 09:52:40;;;;;;;;;25.25;22.00;;;;;20.77;41.26;101598.56;4989603;28;51445;-56
2021/10/15 09:55:25;;;;;;;;;25.25;24.75;;;;;20.80;41.15;101587.97;4999530;28;51371;-57
2021/10/15 09:57:53;;;;;;;;;23.50;22.00;;;;;20.82;41.00;101585.84;4998734;28;51335;-57
2021/10/15 10:00:34;;;;;;;;;22.00;19.00;;;;;20.85;40.94;101588.22;5016403;28;51055;-57
2021/10/15 10:03:00;;;;;;;;;24.00;23.25;;;;;20.86;40.83;101587.16;5004213;28;51163;-57
2021/10/15 10:05:25;;;;;;;;;30.75;22.50;;;;;20.90;41.24;101587.56;5014859;28;51520;-56
2021/10/15 10:07:52;;;;;;;;;18.50;13.50;;;;;20.92;41.04;101593.72;5002627;28;51091;-55
2021/10/15 10:10:24;;;;;;;;;25.00;20.50;;;;;20.94;40.66;101591.59;5011844;28;51926;-55
2021/10/15 10:12:50;;;;;;;;;30.00;22.50;;;;;20.95;41.05;101588.66;5007917;28;51170;-57
2021/10/15 10:15:19;;;;;;;;;19.00;17.75;;;;;20.96;40.75;101595.88;5004684;28;51267;-57
2021/10/15 10:17:51;;;;;;;;;27.25;22.00;;;;;20.97;40.88;101594.81;5001165;28;51267;-56
2021/10/15 10:20:22;;;;;;;;;21.50;21.50;;;;;21.00;40.81;101604.56;5001608;28;51752;-56
2021/10/15 10:23:06;;;;;;;;;28.25;26.50;;;;;20.99;41.11;101600.97;4997070;28;51140;-56
2021/10/15 10:25:33;;;;;;;;;20.75;17.00;;;;;21.01;41.01;101601.59;5008916;28;51114;-56
2021/10/15 10:28:12;;;;;;;;;26.00;21.25;;;;;21.02;40.72;101596.94;4998288;28;51407;-56
2021/10/15 10:30:41;;;;;;;;;24.75;22.25;;;;;21.02;41.17;101600.53;4996058;28;51020;-54
2021/10/15 10:33:06;;;;;;;;;22.75;20.50;;;;;21.03;41.12;101599.47;5008469;28;51585;-55
2021/10/15 10:35:32;;;;;;;;;25.25;22.00;;;;;21.03;41.26;101598.63;4984283;28;51910;-56
2021/10/15 10:38:20;;;;;;;;;30.00;24.50;;;;;21.04;41.20;101600.31;4988275;28;51103;-57
2021/10/15 10:41:00;;;;;;;;;23.25;22.25;;;;;21.04;41.17;101592.91;4995148;28;51178;-55
2021/10/15 10:43:32;;;;;;;;;31.50;24.25;;;;;21.06;40.91;101602.91;4996676;28;51361;-53
2021/10/15 10:46:11;;;;;;;;;24.50;22.50;;;;;21.08;41.50;101606.28;5015443;28;51842;-57
2021/10/15 10:48:49;;;;;;;;;23.25;21.75;;;;;21.09;41.13;101603.31;5013806;28;51090;-56
2021/10/15 10:51:18;;;;;;;;;29.00;21.25;;;;;21.10;41.29;101599.50;5009184;28;51974;-54
2021/10/15 10:54:03;;;;;;;;;22.25;19.50;;;;;21.12;41.55;101602.88;4984965;28;51610;-56
2021/10/15 10:56:46;;;;;;;;;23.50;21.50;;;;;21.15;41.17;101598.88;4983525;28;51074;-55
2021/10/15 10:59:21;;;;;;;;;20.75;20.00;;;;;21.17;41.15;101596.78;4980773;28;51341;-56
2021/10/15 11:01:50;;;;;;;;;23.75;21.25;;;;;21.17;41.29;101594.00;4991250;28;51875;-54
2021/10/15 11:04:36;;;;;;;;;26.50;22.00;;;;;21.18;41.55;101602.06;4987796;28;52374;-58
2021/10/15 11:07:03;;;;;;;;;19.00;17.75;;;;;21.20;41.52;101593.59;4981067;28;51164;-58
2021/10/15 11:09:50;;;;;;;;;20.50;18.75;;;;;21.22;41.75;101588.72;4975713;28;51164;-56
2021/10/15 11:12:41;;;;;;;;;19.00;15.50;;;;;21.24;41.64;101589.34;4982649;28;51089;-56
2021/10/15 11:15:08;;;;;;;;;20.25;18.00;;;;;21.25;41.65;101591.88;4975787;28;51288;-57
2021/10/15 11:17:38;;;;;;;;;26.25;19.25;;;;;21.26;41.76;101588.13;4983384;28;51109;-58
2021/10/15 11:20:26;;;;;;;;;20.75;19.25;;;;;21.29;41.61;101586.84;4975733;28;51285;-57
2021/10/15 11:23:10;;;;;;;;;20.50;18.25;;;;;21.29;41.36;101581.34;4982271;28;51990;-57
2021/10/15 11:25:42;;;;;;;;;19.75;19.00;;;;;21.30;41.56;101583.03;4994381;28;51378;-57
2021/10/15 11:28:11;;;;;;;;;19.25;17.00;;;;;21.31;41.23;101579.22;4994532;28;51329;-56
2021/10/15 11:30:39;;;;;;;;;18.00;15.25;;;;;21.31;41.69;101582.81;4987506;28;51389;-56